Time;durP1;ratioP1;P1;durP2;ratioP2;P2;SDS_P1;SDS_P2;PMS_P1;PMS_P2;Temp;Humidity;BMP_temperature;BMP_pressure;BME280_temperature;BME280_humidity;BME280_pressure;Samples;Min_cycle;Max_cycle;Signal;HPM_P1;HPM_P2
2024/02/11 00:00:43;;;;;;;0.65;0.57;;;19.00;37.70;;;;;;5002362;28;20061;-63
2024/02/11 00:03:11;;;;;;;5.50;1.75;;;19.00;37.80;;;;;;4992251;28;20145;-64
2024/02/11 00:06:13;;;;;;;0.57;0.40;;;19.00;37.70;;;;;;4994113;28;20057;-63
2024/02/11 00:08:41;;;;;;;3.63;0.50;;;19.00;37.70;;;;;;4994449;28;20057;-67
2024/02/11 00:11:12;;;;;;;5.10;1.33;;;19.10;37.80;;;;;;4992159;28;20061;-62
2024/02/11 00:13:42;;;;;;;4.80;0.82;;;19.10;37.80;;;;;;4995755;28;20573;-62
2024/02/11 00:16:11;;;;;;;0.73;0.60;;;19.10;37.80;;;;;;4989640;28;20049;-64
2024/02/11 00:18:41;;;;;;;1.92;0.80;;;19.10;37.70;;;;;;4998802;28;20088;-61
2024/02/11 00:21:13;;;;;;;2.80;0.70;;;19.10;37.70;;;;;;4989805;28;20085;-62
2024/02/11 00:23:44;;;;;;;0.40;0.40;;;19.10;37.70;;;;;;4995531;28;20066;-61
2024/02/11 00:26:13;;;;;;;3.25;0.70;;;19.10;37.70;;;;;;4997359;28;20064;-61
2024/02/11 00:28:42;;;;;;;1.50;0.70;;;19.20;37.70;;;;;;4991360;28;20789;-62
2024/02/11 00:31:11;;;;;;;27.60;7.85;;;19.20;37.80;;;;;;5025132;28;21027;-61
2024/02/11 00:33:40;;;;;;;6.80;0.77;;;19.20;37.70;;;;;;5025637;28;20580;-65
2024/02/11 00:36:11;;;;;;;0.85;0.45;;;19.20;37.70;;;;;;4997535;28;20579;-63
2024/02/11 00:38:40;;;;;;;0.90;0.43;;;19.20;37.80;;;;;;5011359;28;20429;-64
2024/02/11 00:41:08;;;;;;;0.80;0.43;;;19.20;37.80;;;;;;4994726;28;20156;-62
2024/02/11 00:43:37;;;;;;;1.38;0.80;;;19.20;37.70;;;;;;4989418;28;20049;-62
2024/02/11 00:46:07;;;;;;;5.00;1.83;;;19.20;37.60;;;;;;5000747;28;20524;-62
2024/02/11 00:48:35;;;;;;;0.60;0.60;;;19.10;37.60;;;;;;4996918;28;20089;-60
2024/02/11 00:51:05;;;;;;;1.10;0.50;;;19.20;37.70;;;;;;4995609;28;20145;-62
2024/02/11 00:53:36;;;;;;;3.88;0.50;;;19.10;37.70;;;;;;4997874;28;20058;-62
2024/02/11 00:56:05;;;;;;;1.25;0.80;;;19.10;37.70;;;;;;4990085;28;20443;-62
2024/02/11 00:58:33;;;;;;;0.68;0.40;;;19.10;37.80;;;;;;4993885;28;20107;-63
2024/02/11 01:01:04;;;;;;;0.75;0.63;;;19.10;37.80;;;;;;4995498;28;20581;-63
2024/02/11 01:03:35;;;;;;;0.77;0.63;;;19.10;37.80;;;;;;4995112;28;20046;-63
2024/02/11 01:06:07;;;;;;;3.75;0.63;;;19.10;37.80;;;;;;5001317;28;20527;-62
2024/02/11 01:08:38;;;;;;;10.63;0.65;;;19.10;37.90;;;;;;4996227;28;20465;-62
2024/02/11 01:11:09;;;;;;;0.50;0.50;;;19.10;37.80;;;;;;5004771;28;20532;-62
2024/02/11 01:13:41;;;;;;;1.23;0.52;;;19.10;37.70;;;;;;5011487;28;20050;-64
2024/02/11 01:16:11;;;;;;;0.40;0.30;;;19.00;37.70;;;;;;4997544;28;20054;-65
2024/02/11 01:18:39;;;;;;;1.15;0.93;;;19.00;37.90;;;;;;5000131;28;20045;-61
2024/02/11 01:21:09;;;;;;;0.50;0.50;;;18.80;37.80;;;;;;4995384;28;20829;-63
2024/02/11 01:23:39;;;;;;;2.00;1.00;;;18.90;37.80;;;;;;5001870;28;20128;-62
2024/02/11 01:26:08;;;;;;;0.88;0.50;;;18.90;37.90;;;;;;4999438;28;20054;-63
2024/02/11 01:28:36;;;;;;;4.35;0.70;;;18.90;37.90;;;;;;4999697;28;20064;-61
2024/02/11 01:31:06;;;;;;;11.68;2.85;;;18.80;37.90;;;;;;4990151;28;20050;-63
2024/02/11 01:33:35;;;;;;;1.23;0.80;;;18.80;38.00;;;;;;4998024;28;20053;-62
2024/02/11 01:36:07;;;;;;;1.90;0.90;;;18.80;38.00;;;;;;5008374;28;20538;-63
2024/02/11 01:38:38;;;;;;;0.65;0.30;;;18.70;38.10;;;;;;5009104;28;20190;-63
2024/02/11 01:41:08;;;;;;;0.60;0.60;;;18.80;38.20;;;;;;5004312;28;20046;-62
2024/02/11 01:43:37;;;;;;;0.60;0.60;;;18.80;38.50;;;;;;4999701;28;20168;-61
2024/02/11 01:46:06;;;;;;;5.40;1.67;;;18.80;38.30;;;;;;4999409;28;20512;-63
2024/02/11 01:48:35;;;;;;;4.32;0.50;;;18.80;38.20;;;;;;4998584;28;20164;-62
2024/02/11 01:51:05;;;;;;;1.30;0.60;;;18.80;38.20;;;;;;4993241;28;20069;-61
2024/02/11 01:53:36;;;;;;;4.07;1.75;;;18.80;38.10;;;;;;5027612;28;20513;-63
2024/02/11 01:56:06;;;;;;;3.05;0.47;;;19.00;38.50;;;;;;4991982;28;20499;-62
2024/02/11 01:58:37;;;;;;;0.55;0.50;;;18.90;38.20;;;;;;5000028;28;20504;-63
2024/02/11 02:01:07;;;;;;;2.10;0.40;;;18.90;38.20;;;;;;4994325;28;20515;-61
2024/02/11 02:03:36;;;;;;;2.60;0.88;;;18.90;38.30;;;;;;5008134;28;20668;-62
2024/02/11 02:06:08;;;;;;;0.70;0.35;;;18.90;38.30;;;;;;4999240;28;20535;-62
2024/02/11 02:08:39;;;;;;;0.90;0.57;;;18.90;38.30;;;;;;4998299;28;20455;-63
2024/02/11 02:11:10;;;;;;;1.52;0.47;;;18.90;38.30;;;;;;4990810;28;20690;-61
2024/02/11 02:13:41;;;;;;;1.15;0.38;;;18.90;38.30;;;;;;4994642;28;20054;-62
2024/02/11 02:16:10;;;;;;;0.30;0.30;;;18.90;38.30;;;;;;4995955;28;20148;-62
2024/02/11 02:18:39;;;;;;;1.80;0.52;;;18.90;38.30;;;;;;4991476;28;20050;-62
2024/02/11 02:21:09;;;;;;;0.88;0.52;;;18.90;38.30;;;;;;4990514;28;20237;-62
2024/02/11 02:23:41;;;;;;;1.48;1.10;;;18.90;38.30;;;;;;5001074;28;20097;-63
2024/02/11 02:26:10;;;;;;;3.67;0.70;;;19.00;38.70;;;;;;4996571;28;20060;-64
2024/02/11 02:28:38;;;;;;;1.02;0.65;;;19.00;38.20;;;;;;5002798;28;20108;-61
2024/02/11 02:31:07;;;;;;;6.65;2.67;;;19.00;38.20;;;;;;4990695;28;20456;-64
2024/02/11 02:33:36;;;;;;;11.98;2.30;;;19.00;38.10;;;;;;4990712;28;20052;-62
2024/02/11 02:36:06;;;;;;;3.97;2.15;;;19.00;38.10;;;;;;4997444;28;20084;-62
2024/02/11 02:38:35;;;;;;;5.32;2.03;;;18.90;38.10;;;;;;5010001;28;20123;-61
2024/02/11 02:41:06;;;;;;;4.03;1.98;;;18.70;38.10;;;;;;4988971;28;20753;-63
2024/02/11 02:43:35;;;;;;;5.47;2.17;;;18.50;38.20;;;;;;4998140;28;20056;-66
2024/02/11 02:46:07;;;;;;;3.92;2.08;;;18.40;38.30;;;;;;5000088;28;20149;-61
2024/02/11 02:48:35;;;;;;;8.60;3.65;;;18.30;38.50;;;;;;4997635;28;20385;-62
2024/02/11 02:51:04;;;;;;;6.30;2.53;;;18.20;38.60;;;;;;4984788;28;20062;-61
2024/02/11 02:53:35;;;;;;;5.75;2.60;;;18.10;38.70;;;;;;4997641;28;20150;-61
2024/02/11 02:56:06;;;;;;;3.53;1.58;;;18.00;38.80;;;;;;4999369;28;20062;-62
2024/02/11 02:58:34;;;;;;;12.50;2.08;;;17.90;38.90;;;;;;4997309;28;20061;-63
2024/02/11 03:01:04;;;;;;;5.57;2.15;;;17.80;39.10;;;;;;4989904;28;20412;-62
2024/02/11 03:03:33;;;;;;;4.85;1.83;;;17.80;39.20;;;;;;4995938;28;20065;-61
2024/02/11 03:06:03;;;;;;;25.20;7.97;;;17.80;39.30;;;;;;4994350;28;20134;-63
2024/02/11 03:08:33;;;;;;;34.03;9.13;;;17.80;39.40;;;;;;4996485;28;20056;-63
2024/02/11 03:11:02;;;;;;;5.78;1.70;;;17.80;39.50;;;;;;4989687;28;20046;-64
2024/02/11 03:13:32;;;;;;;3.97;2.00;;;17.80;39.80;;;;;;4999313;28;20058;-61
2024/02/11 03:16:00;;;;;;;2.65;1.60;;;17.70;39.60;;;;;;4978441;28;20759;-63
2024/02/11 03:18:28;;;;;;;5.85;1.52;;;17.70;39.70;;;;;;4994011;28;20065;-63
2024/02/11 03:20:57;;;;;;;8.45;2.38;;;17.70;39.70;;;;;;4987927;28;20507;-61
2024/02/11 03:23:25;;;;;;;3.25;1.52;;;17.70;39.70;;;;;;4996713;28;20129;-62
2024/02/11 03:25:53;;;;;;;3.50;1.77;;;17.70;39.70;;;;;;4997398;28;20046;-64
2024/02/11 03:28:22;;;;;;;11.68;3.38;;;17.70;39.90;;;;;;4996437;28;20054;-62
2024/02/11 03:30:52;;;;;;;10.27;2.10;;;17.80;39.90;;;;;;4995912;28;20053;-62
2024/02/11 03:33:20;;;;;;;5.50;2.65;;;17.80;40.00;;;;;;4993573;28;20710;-62
2024/02/11 03:35:48;;;;;;;2.90;1.55;;;17.70;40.20;;;;;;4995687;28;20065;-63
2024/02/11 03:38:18;;;;;;;6.43;1.95;;;17.50;40.30;;;;;;4997413;28;20046;-62
2024/02/11 03:40:47;;;;;;;3.97;1.67;;;17.40;40.60;;;;;;4997510;28;20057;-62
2024/02/11 03:43:15;;;;;;;4.30;1.95;;;17.30;40.90;;;;;;4996983;28;20045;-63
2024/02/11 03:45:44;;;;;;;3.83;1.85;;;17.20;41.10;;;;;;4997768;28;20543;-65
2024/02/11 03:48:13;;;;;;;36.63;10.90;;;17.20;41.30;;;;;;4997821;28;20050;-62
2024/02/11 03:50:42;;;;;;;14.23;3.95;;;17.20;41.70;;;;;;4993643;28;20053;-63
2024/02/11 03:53:10;;;;;;;6.35;2.28;;;17.10;41.60;;;;;;4989072;28;21705;-63
2024/02/11 03:55:39;;;;;;;5.13;2.20;;;17.10;41.80;;;;;;4995465;28;20058;-62
2024/02/11 03:58:07;;;;;;;5.35;2.35;;;17.00;42.00;;;;;;4997041;28;20081;-63
2024/02/11 04:00:35;;;;;;;2.50;1.80;;;17.00;42.20;;;;;;4994334;28;20046;-63
2024/02/11 04:03:04;;;;;;;3.97;1.83;;;16.90;42.30;;;;;;4988964;28;20058;-66
2024/02/11 04:05:35;;;;;;;11.13;3.63;;;16.80;42.50;;;;;;4997933;28;20050;-75
2024/02/11 04:08:08;;;;;;;3.88;2.40;;;16.80;43.10;;;;;;4996872;28;20077;-65
2024/02/11 04:10:39;;;;;;;5.72;2.17;;;16.70;43.00;;;;;;4995712;28;20687;-62
2024/02/11 04:13:09;;;;;;;5.80;2.72;;;16.60;43.20;;;;;;4990707;28;20046;-63
2024/02/11 04:15:38;;;;;;;7.55;2.90;;;16.50;43.30;;;;;;4996279;28;20112;-62
2024/02/11 04:18:10;;;;;;;7.90;3.15;;;16.50;43.50;;;;;;4997852;28;20661;-69
2024/02/11 04:20:43;;;;;;;12.30;3.92;;;16.50;43.60;;;;;;4994592;28;20750;-64
2024/02/11 04:23:13;;;;;;;25.83;8.05;;;16.40;43.60;;;;;;4990053;28;20540;-63
2024/02/11 04:25:45;;;;;;;10.88;3.65;;;16.50;43.60;;;;;;4995994;28;20060;-63
2024/02/11 04:28:13;;;;;;;5.95;2.85;;;16.50;43.80;;;;;;4990755;28;20050;-61
2024/02/11 04:30:46;;;;;;;15.93;4.43;;;16.40;43.80;;;;;;4991754;28;20061;-63
2024/02/11 04:33:22;;;;;;;14.10;3.42;;;16.40;43.90;;;;;;4991781;28;20083;-63
2024/02/11 04:35:52;;;;;;;9.95;2.92;;;16.30;44.10;;;;;;4987932;28;20642;-63
2024/02/11 04:38:23;;;;;;;3.95;2.10;;;16.30;44.30;;;;;;4995379;28;20128;-63
2024/02/11 04:40:52;;;;;;;12.18;3.63;;;16.20;44.30;;;;;;4998272;28;20057;-64
2024/02/11 04:43:20;;;;;;;10.63;2.50;;;16.20;44.40;;;;;;4997651;28;20057;-62
2024/02/11 04:45:49;;;;;;;5.28;2.47;;;16.10;44.60;;;;;;4998069;28;20062;-62
2024/02/11 04:48:21;;;;;;;6.03;2.15;;;16.10;44.90;;;;;;5001846;28;20062;-63
2024/02/11 04:50:49;;;;;;;3.80;2.53;;;16.10;44.80;;;;;;5000653;28;20676;-62
2024/02/11 04:53:20;;;;;;;3.45;1.65;;;16.10;44.90;;;;;;4987952;28;20050;-62
2024/02/11 04:55:50;;;;;;;4.93;1.80;;;16.10;45.00;;;;;;4999034;28;20065;-75
2024/02/11 04:58:20;;;;;;;4.90;2.25;;;16.10;45.00;;;;;;4997724;28;20111;-62
2024/02/11 05:00:50;;;;;;;7.68;1.90;;;16.10;45.20;;;;;;4999236;28;20153;-63
2024/02/11 05:03:20;;;;;;;10.20;2.83;;;16.00;45.30;;;;;;4992388;28;20484;-62
2024/02/11 05:05:50;;;;;;;13.93;3.40;;;16.00;45.60;;;;;;4999906;28;20054;-61
2024/02/11 05:08:24;;;;;;;5.88;2.67;;;15.80;45.80;;;;;;4999427;28;20064;-62
2024/02/11 05:10:54;;;;;;;7.20;2.90;;;15.80;46.10;;;;;;4998031;28;20081;-62
2024/02/11 05:13:29;;;;;;;5.38;2.60;;;15.70;46.20;;;;;;4994289;28;20050;-62
2024/02/11 05:16:01;;;;;;;9.05;2.53;;;15.70;46.40;;;;;;4997757;28;20052;-64
2024/02/11 05:18:32;;;;;;;12.02;2.88;;;15.60;46.50;;;;;;5010895;28;20089;-62
2024/02/11 05:21:02;;;;;;;7.93;2.60;;;15.50;46.80;;;;;;4988799;28;20058;-62
2024/02/11 05:23:33;;;;;;;6.20;2.83;;;15.40;47.00;;;;;;4992904;28;20404;-62
2024/02/11 05:26:05;;;;;;;26.73;3.17;;;15.20;47.30;;;;;;5000608;28;20155;-62
2024/02/11 05:28:35;;;;;;;5.53;2.50;;;15.10;47.50;;;;;;4999503;28;20085;-61
2024/02/11 05:31:04;;;;;;;50.47;2.72;;;15.00;47.80;;;;;;5000178;28;20511;-62
2024/02/11 05:33:34;;;;;;;2.42;1.48;;;15.00;48.00;;;;;;4991052;28;20057;-63
2024/02/11 05:36:07;;;;;;;1.42;1.15;;;14.90;48.60;;;;;;5006689;28;20057;-61
2024/02/11 05:38:39;;;;;;;0.52;0.52;;;14.90;48.00;;;;;;4999920;28;20141;-62
2024/02/11 05:41:09;;;;;;;0.80;0.75;;;14.90;49.00;;;;;;4998453;28;20522;-61
2024/02/11 05:43:39;;;;;;;0.10;0.10;;;14.80;51.60;;;;;;4991761;28;20065;-61
2024/02/11 05:46:08;;;;;;;0.20;0.20;;;14.70;52.70;;;;;;4999392;28;20057;-61
2024/02/11 05:48:37;;;;;;;0.20;0.20;;;14.60;54.50;;;;;;4993068;28;20831;-60
2024/02/11 05:51:06;;;;;;;0.20;0.20;;;14.50;55.40;;;;;;4998907;28;20050;-59
2024/02/11 05:53:35;;;;;;;0.20;0.20;;;14.30;57.60;;;;;;4992834;28;20692;-60
2024/02/11 05:56:06;;;;;;;0.20;0.20;;;14.10;59.90;;;;;;4994291;28;20141;-59
2024/02/11 05:58:35;;;;;;;0.20;0.20;;;14.00;61.50;;;;;;4998075;28;20459;-59
2024/02/11 06:01:04;;;;;;;0.20;0.20;;;13.90;62.70;;;;;;4998106;28;20419;-59
2024/02/11 06:03:34;;;;;;;0.20;0.20;;;13.80;64.00;;;;;;5000358;28;20064;-59
2024/02/11 06:06:06;;;;;;;0.20;0.20;;;13.80;64.30;;;;;;5001125;28;20137;-58
2024/02/11 06:08:35;;;;;;;0.20;0.20;;;13.80;65.00;;;;;;5026337;28;20073;-59
2024/02/11 06:11:06;;;;;;;0.20;0.20;;;13.80;65.60;;;;;;4996121;28;20515;-59
2024/02/11 06:13:35;;;;;;;0.20;0.20;;;13.80;65.90;;;;;;4998369;28;20147;-59
2024/02/11 06:16:06;;;;;;;0.20;0.20;;;13.90;66.40;;;;;;4992714;28;20050;-59
2024/02/11 06:18:35;;;;;;;0.20;0.20;;;14.00;66.80;;;;;;4995769;28;20730;-60
2024/02/11 06:21:05;;;;;;;0.20;0.20;;;14.10;67.10;;;;;;4998789;28;20724;-60
2024/02/11 06:23:34;;;;;;;0.10;0.10;;;14.10;67.10;;;;;;4996473;28;20049;-58
2024/02/11 06:26:04;;;;;;;0.20;0.20;;;14.20;67.20;;;;;;4985457;28;20049;-59
2024/02/11 06:28:34;;;;;;;0.20;0.20;;;14.20;67.40;;;;;;4999715;28;20054;-58
2024/02/11 06:31:03;;;;;;;0.20;0.20;;;14.30;67.60;;;;;;4995454;28;20847;-59
2024/02/11 06:33:31;;;;;;;0.20;0.20;;;14.40;67.70;;;;;;4998540;28;20768;-59
2024/02/11 06:36:00;;;;;;;0.10;0.10;;;14.40;67.70;;;;;;5009044;28;20114;-59
2024/02/11 06:38:28;;;;;;;0.20;0.20;;;14.40;67.70;;;;;;4992999;28;20050;-59
2024/02/11 06:40:57;;;;;;;0.20;0.20;;;14.40;67.80;;;;;;4998640;28;20061;-58
2024/02/11 06:43:30;;;;;;;0.20;0.20;;;14.50;68.00;;;;;;4994562;28;20133;-59
2024/02/11 06:45:58;;;;;;;0.20;0.20;;;14.50;68.00;;;;;;4996623;28;20525;-60
2024/02/11 06:48:28;;;;;;;0.20;0.20;;;14.50;68.00;;;;;;4990455;28;20756;-59
2024/02/11 06:50:57;;;;;;;0.20;0.20;;;14.50;68.10;;;;;;4998079;28;20475;-59
2024/02/11 06:53:25;;;;;;;0.10;0.10;;;14.60;68.20;;;;;;5030566;28;20451;-59
2024/02/11 06:55:53;;;;;;;0.20;0.20;;;14.60;68.00;;;;;;4996358;28;20046;-60
2024/02/11 06:58:22;;;;;;;0.20;0.20;;;14.60;67.80;;;;;;4992294;28;20108;-59
2024/02/11 07:00:53;;;;;;;0.20;0.20;;;14.50;67.40;;;;;;4998032;28;20073;-59
2024/02/11 07:03:23;;;;;;;0.20;0.20;;;14.30;67.20;;;;;;4996840;28;20053;-59
2024/02/11 07:05:52;;;;;;;0.20;0.20;;;14.20;67.10;;;;;;4997711;28;20058;-59
2024/02/11 07:08:22;;;;;;;0.20;0.20;;;14.00;67.10;;;;;;4997623;28;20066;-59
2024/02/11 07:10:50;;;;;;;0.20;0.20;;;13.90;67.30;;;;;;5001777;28;20149;-59
2024/02/11 07:13:19;;;;;;;0.20;0.20;;;13.80;67.50;;;;;;4996541;28;20482;-59
2024/02/11 07:15:48;;;;;;;0.20;0.20;;;13.70;67.30;;;;;;4995823;28;20053;-58
2024/02/11 07:18:18;;;;;;;0.20;0.20;;;13.50;67.20;;;;;;4995128;28;20145;-60
2024/02/11 07:20:47;;;;;;;0.20;0.20;;;13.40;67.40;;;;;;4998606;28;20070;-60
2024/02/11 07:23:15;;;;;;;0.20;0.20;;;13.20;67.40;;;;;;4978292;28;21617;-60
2024/02/11 07:25:44;;;;;;;0.20;0.20;;;13.10;67.50;;;;;;5026070;28;20104;-59
2024/02/11 07:28:14;;;;;;;0.20;0.20;;;12.90;67.50;;;;;;4998829;28;20167;-61
2024/02/11 07:30:45;;;;;;;0.20;0.20;;;12.80;67.70;;;;;;4999879;28;20072;-60
2024/02/11 07:33:18;;;;;;;0.20;0.20;;;12.80;68.10;;;;;;4990605;28;20185;-60
2024/02/11 07:35:48;;;;;;;0.25;0.25;;;12.70;68.10;;;;;;4997125;28;20077;-60
2024/02/11 07:38:17;;;;;;;0.20;0.20;;;12.60;68.10;;;;;;4997325;28;20061;-60
2024/02/11 07:40:53;;;;;;;0.20;0.20;;;12.60;68.10;;;;;;4991172;28;20137;-61
2024/02/11 07:43:25;;;;;;;0.20;0.20;;;12.50;68.10;;;;;;4996716;28;20041;-61
2024/02/11 07:45:57;;;;;;;0.20;0.20;;;12.50;68.10;;;;;;4987197;28;20058;-60
2024/02/11 07:48:26;;;;;;;0.20;0.20;;;12.40;68.40;;;;;;4995620;28;20161;-61
2024/02/11 07:50:56;;;;;;;0.20;0.20;;;12.40;68.20;;;;;;4995475;28;20516;-61
2024/02/11 07:53:24;;;;;;;0.20;0.20;;;12.40;68.30;;;;;;4988648;28;20456;-60
2024/02/11 07:55:53;;;;;;;0.20;0.20;;;12.30;67.90;;;;;;4982834;28;20065;-61
2024/02/11 07:58:21;;;;;;;0.30;0.30;;;12.20;68.20;;;;;;4993057;28;20046;-55
2024/02/11 08:00:49;;;;;;;0.20;0.20;;;12.20;68.20;;;;;;4994697;28;20049;-58
2024/02/11 08:03:19;;;;;;;0.20;0.20;;;12.20;68.40;;;;;;4994765;28;20053;-52
2024/02/11 08:05:51;;;;;;;0.20;0.20;;;12.20;68.40;;;;;;4990145;28;20064;-54
2024/02/11 08:08:21;;;;;;;0.20;0.20;;;12.20;68.40;;;;;;4994461;28;20061;-54
2024/02/11 08:10:51;;;;;;;0.20;0.20;;;12.20;68.50;;;;;;4996676;28;20136;-58
2024/02/11 08:13:20;;;;;;;0.20;0.20;;;12.20;68.60;;;;;;4997228;28;20085;-55
2024/02/11 08:15:49;;;;;;;0.20;0.20;;;12.20;68.70;;;;;;4997477;28;20065;-55
2024/02/11 08:18:17;;;;;;;0.30;0.30;;;12.20;68.50;;;;;;4994052;28;20737;-54
2024/02/11 08:20:45;;;;;;;0.20;0.20;;;12.20;68.40;;;;;;4997668;28;20058;-55
2024/02/11 08:23:14;;;;;;;0.20;0.20;;;12.20;68.50;;;;;;5000255;28;20097;-53
2024/02/11 08:25:43;;;;;;;0.20;0.20;;;12.20;68.60;;;;;;4999677;28;20101;-55
2024/02/11 08:28:12;;;;;;;0.20;0.20;;;12.20;68.30;;;;;;5000857;28;20054;-56
2024/02/11 08:30:41;;;;;;;0.20;0.20;;;12.10;68.40;;;;;;4994372;28;20062;-53
2024/02/11 08:33:10;;;;;;;0.20;0.20;;;12.10;68.30;;;;;;4998685;28;20081;-54
2024/02/11 08:35:38;;;;;;;0.20;0.20;;;12.00;68.20;;;;;;4998296;28;20053;-55
2024/02/11 08:38:06;;;;;;;0.20;0.20;;;12.30;68.60;;;;;;4998652;28;20057;-54
2024/02/11 08:40:35;;;;;;;0.30;0.30;;;12.00;68.30;;;;;;4996959;28;20484;-54
2024/02/11 08:43:05;;;;;;;0.30;0.30;;;12.00;68.30;;;;;;4973205;28;20049;-54
2024/02/11 08:45:33;;;;;;;0.30;0.30;;;12.00;68.30;;;;;;4977946;28;20552;-54
2024/02/11 08:48:02;;;;;;;0.30;0.30;;;12.00;68.30;;;;;;4979740;28;20062;-57
2024/02/11 08:50:30;;;;;;;0.20;0.20;;;12.00;68.50;;;;;;4978831;28;20082;-54
2024/02/11 08:53:00;;;;;;;0.20;0.20;;;12.00;68.50;;;;;;4980129;28;20623;-53
2024/02/11 08:55:30;;;;;;;0.20;0.20;;;12.00;68.60;;;;;;4972816;28;20073;-56
2024/02/11 08:57:59;;;;;;;0.20;0.20;;;12.00;68.60;;;;;;4972947;28;20109;-54
2024/02/11 09:00:29;;;;;;;0.30;0.30;;;12.00;68.60;;;;;;4977957;28;20046;-54
2024/02/11 09:02:58;;;;;;;0.30;0.30;;;12.00;69.20;;;;;;4979422;28;20059;-53
2024/02/11 09:05:26;;;;;;;0.20;0.20;;;12.00;69.30;;;;;;4979937;28;20081;-54
2024/02/11 09:07:55;;;;;;;0.20;0.20;;;12.00;69.50;;;;;;4980891;28;20077;-54
2024/02/11 09:10:24;;;;;;;0.30;0.30;;;11.90;69.70;;;;;;4972440;28;20097;-56
2024/02/11 09:12:53;;;;;;;0.20;0.20;;;12.00;70.10;;;;;;4979849;28;20050;-59
2024/02/11 09:15:22;;;;;;;0.20;0.20;;;12.00;70.20;;;;;;4975642;28;20121;-58
2024/02/11 09:17:55;;;;;;;0.20;0.20;;;12.00;70.20;;;;;;4973170;28;20665;-55
2024/02/11 09:20:23;;;;;;;0.20;0.20;;;12.10;70.30;;;;;;4976430;28;20050;-56
2024/02/11 09:22:52;;;;;;;0.20;0.20;;;12.10;70.30;;;;;;4977667;28;20108;-60
2024/02/11 09:25:21;;;;;;;0.20;0.20;;;12.20;70.30;;;;;;4970686;28;20117;-58
2024/02/11 09:27:50;;;;;;;0.20;0.20;;;12.30;70.20;;;;;;4978389;28;20065;-57
2024/02/11 09:30:18;;;;;;;0.20;0.20;;;12.30;70.10;;;;;;4992745;28;20081;-57
2024/02/11 09:32:48;;;;;;;0.20;0.20;;;12.30;70.10;;;;;;4978078;28;20133;-58
2024/02/11 09:35:20;;;;;;;0.20;0.20;;;12.30;70.30;;;;;;4976727;28;20054;-56
2024/02/11 09:37:51;;;;;;;0.20;0.20;;;12.40;70.40;;;;;;4966615;28;20675;-59
2024/02/11 09:40:20;;;;;;;0.20;0.20;;;12.40;70.40;;;;;;4976112;28;20449;-57
2024/02/11 09:42:50;;;;;;;0.30;0.30;;;12.50;70.40;;;;;;4993295;28;20056;-58
2024/02/11 09:45:20;;;;;;;0.20;0.20;;;12.50;70.10;;;;;;4994731;28;20512;-58
2024/02/11 09:47:52;;;;;;;0.20;0.20;;;12.60;70.20;;;;;;4995875;28;20061;-54
2024/02/11 09:50:24;;;;;;;0.20;0.20;;;12.60;70.30;;;;;;4993961;28;20061;-57
2024/02/11 09:52:53;;;;;;;0.20;0.20;;;12.70;70.40;;;;;;4990224;28;20135;-56
2024/02/11 09:55:22;;;;;;;0.20;0.20;;;12.70;70.10;;;;;;4997557;28;20060;-56
2024/02/11 09:57:51;;;;;;;0.30;0.30;;;12.70;70.10;;;;;;4996672;28;20084;-56
2024/02/11 10:00:21;;;;;;;0.20;0.20;;;12.80;70.10;;;;;;4995383;28;20068;-57
2024/02/11 10:02:50;;;;;;;0.20;0.20;;;12.80;70.10;;;;;;4998978;28;20170;-57
2024/02/11 10:05:24;;;;;;;0.20;0.20;;;12.90;70.10;;;;;;4986689;28;20951;-58
2024/02/11 10:07:55;;;;;;;0.20;0.20;;;12.90;70.70;;;;;;4995587;28;20116;-57
2024/02/11 10:10:25;;;;;;;0.20;0.20;;;13.00;69.90;;;;;;4994522;28;20136;-57
2024/02/11 10:12:57;;;;;;;0.22;0.22;;;12.90;69.60;;;;;;4992587;28;20066;-58
2024/02/11 10:15:26;;;;;;;0.20;0.20;;;13.00;70.50;;;;;;4986804;28;20062;-56
2024/02/11 10:17:55;;;;;;;0.20;0.20;;;13.00;69.80;;;;;;4993483;28;20074;-58
2024/02/11 10:20:26;;;;;;;0.20;0.20;;;13.00;69.70;;;;;;4993905;28;20065;-57
2024/02/11 10:22:54;;;;;;;0.20;0.20;;;13.10;69.60;;;;;;4990706;28;20099;-60
2024/02/11 10:25:23;;;;;;;0.20;0.20;;;13.10;69.60;;;;;;4995120;28;20054;-58
2024/02/11 10:27:52;;;;;;;0.20;0.20;;;13.10;69.70;;;;;;4989874;28;20058;-57
2024/02/11 10:30:20;;;;;;;0.20;0.20;;;13.10;69.70;;;;;;4995706;28;20061;-58
2024/02/11 10:32:49;;;;;;;0.20;0.20;;;13.20;69.70;;;;;;4998290;28;20122;-57
2024/02/11 10:35:18;;;;;;;0.20;0.20;;;13.20;69.70;;;;;;4996912;28;20574;-57
2024/02/11 10:37:48;;;;;;;0.20;0.20;;;13.30;69.60;;;;;;4995661;28;20571;-58
2024/02/11 10:40:23;;;;;;;0.30;0.30;;;13.30;69.50;;;;;;4988804;28;20165;-59
2024/02/11 10:42:51;;;;;;;0.95;0.95;;;13.30;69.50;;;;;;4996846;28;20057;-58
2024/02/11 10:45:20;;;;;;;0.40;0.40;;;13.40;69.40;;;;;;5009079;28;20065;-58
2024/02/11 10:47:48;;;;;;;1.00;0.68;;;13.40;69.50;;;;;;4993744;28;20058;-58
2024/02/11 10:50:17;;;;;;;5.28;2.50;;;13.50;69.40;;;;;;4997827;28;20061;-56
2024/02/11 10:52:52;;;;;;;1.75;1.65;;;13.50;69.30;;;;;;4990939;28;20054;-55
2024/02/11 10:55:26;;;;;;;7.10;3.57;;;13.60;69.40;;;;;;5028382;28;20054;-58
2024/02/11 10:57:58;;;;;;;4.47;3.00;;;13.60;69.30;;;;;;4994118;28;20049;-58
2024/02/11 11:00:27;;;;;;;3.83;2.88;;;13.70;69.30;;;;;;4995749;28;20054;-58
2024/02/11 11:02:59;;;;;;;3.42;2.58;;;13.70;69.20;;;;;;4998373;28;20150;-56
2024/02/11 11:05:32;;;;;;;12.75;2.80;;;13.80;69.30;;;;;;4988336;28;21332;-58
2024/02/11 11:08:03;;;;;;;3.97;2.58;;;13.80;69.10;;;;;;4993900;28;20104;-58
2024/02/11 11:10:36;;;;;;;4.55;2.22;;;13.90;69.00;;;;;;5009624;28;20136;-57
2024/02/11 11:13:05;;;;;;;7.15;3.65;;;13.90;68.80;;;;;;4995005;28;20141;-56
2024/02/11 11:15:34;;;;;;;6.07;2.55;;;13.90;68.80;;;;;;4989154;28;20054;-55
2024/02/11 11:18:04;;;;;;;5.47;2.38;;;14.00;68.90;;;;;;4996103;28;20149;-58
2024/02/11 11:20:36;;;;;;;2.80;1.73;;;14.00;68.70;;;;;;4993958;28;20082;-57
2024/02/11 11:23:06;;;;;;;4.88;2.60;;;14.00;68.60;;;;;;4996279;28;20109;-57
2024/02/11 11:25:36;;;;;;;5.60;1.98;;;13.90;68.60;;;;;;4996362;28;20149;-58
2024/02/11 11:28:13;;;;;;;3.40;2.15;;;13.90;68.50;;;;;;4993862;28;20392;-57
2024/02/11 11:30:41;;;;;;;3.38;2.00;;;13.90;68.60;;;;;;4995951;28;20080;-57
2024/02/11 11:33:10;;;;;;;3.63;1.83;;;13.90;68.70;;;;;;4995842;28;20061;-58
2024/02/11 11:35:39;;;;;;;3.03;1.80;;;13.90;68.70;;;;;;4999002;28;20061;-59
2024/02/11 11:38:09;;;;;;;6.65;1.90;;;13.90;68.60;;;;;;5017477;28;20046;-57
2024/02/11 11:40:38;;;;;;;5.03;2.47;;;13.90;68.50;;;;;;4998258;28;20065;-59
2024/02/11 11:43:14;;;;;;;4.05;1.48;;;13.90;68.70;;;;;;4985501;28;20046;-58
2024/02/11 11:45:55;;;;;;;3.83;1.70;;;13.90;68.80;;;;;;4997675;28;20066;-59
2024/02/11 11:48:24;;;;;;;4.22;1.90;;;13.90;68.80;;;;;;4992519;28;20053;-54
2024/02/11 11:50:56;;;;;;;3.58;2.17;;;13.90;68.70;;;;;;4988714;28;20081;-58
2024/02/11 11:53:27;;;;;;;10.45;4.10;;;13.90;68.80;;;;;;4987121;28;20049;-59
2024/02/11 11:56:00;;;;;;;2.88;2.05;;;14.00;68.70;;;;;;4994411;28;20148;-59
2024/02/11 11:58:31;;;;;;;9.15;3.15;;;14.00;68.60;;;;;;4993942;28;20049;-59
2024/02/11 12:01:00;;;;;;;12.15;3.15;;;14.10;68.60;;;;;;4997819;28;20054;-59
2024/02/11 12:03:29;;;;;;;4.25;2.72;;;14.10;68.50;;;;;;4996135;28;20058;-56
2024/02/11 12:05:59;;;;;;;3.60;2.15;;;14.20;68.40;;;;;;5027361;28;20057;-58
2024/02/11 12:08:30;;;;;;;7.80;3.88;;;14.20;68.40;;;;;;4997099;28;20057;-58
2024/02/11 12:11:03;;;;;;;6.90;3.05;;;14.20;68.30;;;;;;4989855;28;21641;-60
2024/02/11 12:13:33;;;;;;;5.80;3.22;;;14.10;68.40;;;;;;4994136;28;20145;-58
2024/02/11 12:16:04;;;;;;;7.68;2.90;;;14.10;68.00;;;;;;4997210;28;20049;-61
2024/02/11 12:18:34;;;;;;;10.27;1.90;;;14.00;68.10;;;;;;4997575;28;20450;-58
2024/02/11 12:21:03;;;;;;;4.65;1.88;;;14.00;68.10;;;;;;4996353;28;20196;-59
2024/02/11 12:23:34;;;;;;;5.95;2.15;;;14.00;68.10;;;;;;4988181;28;20139;-59
2024/02/11 12:26:04;;;;;;;8.23;2.67;;;13.90;68.10;;;;;;4995612;28;20064;-59
2024/02/11 12:28:35;;;;;;;4.13;2.50;;;13.90;68.00;;;;;;4990581;28;20298;-58
2024/02/11 12:31:09;;;;;;;5.68;2.05;;;13.90;68.10;;;;;;5000719;28;20053;-58
2024/02/11 12:33:39;;;;;;;5.18;2.63;;;13.90;68.10;;;;;;4996406;28;20061;-58
2024/02/11 12:36:09;;;;;;;3.65;1.92;;;13.90;68.10;;;;;;4993229;28;20399;-58
2024/02/11 12:38:41;;;;;;;10.82;4.55;;;13.90;68.00;;;;;;4988307;28;20622;-58
2024/02/11 12:41:11;;;;;;;3.92;2.13;;;13.90;68.00;;;;;;4993419;28;20108;-59
2024/02/11 12:43:42;;;;;;;4.03;2.03;;;13.90;68.00;;;;;;4996007;28;20065;-59
2024/02/11 12:46:10;;;;;;;4.68;2.22;;;13.90;68.10;;;;;;4998161;28;20058;-59
2024/02/11 12:48:40;;;;;;;7.50;2.40;;;13.90;68.20;;;;;;4988530;28;20101;-61
2024/02/11 12:51:10;;;;;;;3.95;1.70;;;14.00;68.30;;;;;;4993904;28;20047;-59
2024/02/11 12:53:40;;;;;;;3.35;1.30;;;14.10;68.20;;;;;;4995983;28;20141;-58
2024/02/11 12:56:10;;;;;;;10.45;3.35;;;14.20;68.00;;;;;;4995680;28;20065;-59
2024/02/11 12:58:40;;;;;;;4.20;1.58;;;14.20;68.00;;;;;;4989445;28;20176;-59